sensor_id;sensor_type;location;lat;lon;timestamp;temperature;humidity
21473;DHT22;10898;48.072;11.682;2022-12-05T00:01:41;2.80;99.90
21473;DHT22;10898;48.072;11.682;2022-12-05T00:03:43;2.80;99.90
21473;DHT22;10898;48.072;11.682;2022-12-05T00:05:46;2.80;99.90
21473;DHT22;10898;48.072;11.682;2022-12-05T00:07:47;2.80;99.90
21473;DHT22;10898;48.072;11.682;2022-12-05T00:09:49;2.80;99.90
21473;DHT22;10898;48.072;11.682;2022-12-05T00:11:51;2.70;99.90
21473;DHT22;10898;48.072;11.682;2022-12-05T00:13:54;2.70;99.90
21473;DHT22;10898;48.072;11.682;2022-12-05T00:15:56;2.70;99.90
21473;DHT22;10898;48.072;11.682;2022-12-05T00:17:58;2.70;99.90
21473;DHT22;10898;48.072;11.682;2022-12-05T00:20:00;2.70;99.90
21473;DHT22;10898;48.072;11.682;2022-12-05T00:22:02;2.70;99.90
21473;DHT22;10898;48.072;11.682;2022-12-05T00:24:05;2.70;99.90
21473;DHT22;10898;48.072;11.682;2022-12-05T00:26:08;2.70;99.90
21473;DHT22;10898;48.072;11.682;2022-12-05T00:28:10;2.70;99.90
21473;DHT22;10898;48.072;11.682;2022-12-05T00:30:12;2.70;99.90
21473;DHT22;10898;48.072;11.682;2022-12-05T00:32:14;2.70;99.90
21473;DHT22;10898;48.072;11.682;2022-12-05T00:34:15;2.70;99.90
21473;DHT22;10898;48.072;11.682;2022-12-05T00:36:24;2.70;99.90
21473;DHT22;10898;48.072;11.682;2022-12-05T00:38:26;2.70;99.90
21473;DHT22;10898;48.072;11.682;2022-12-05T00:40:28;2.70;99.90
21473;DHT22;10898;48.072;11.682;2022-12-05T00:42:30;2.70;99.90
21473;DHT22;10898;48.072;11.682;2022-12-05T00:44:32;2.50;99.90
21473;DHT22;10898;48.072;11.682;2022-12-05T00:46:34;2.70;99.90
21473;DHT22;10898;48.072;11.682;2022-12-05T00:48:36;2.80;99.90
21473;DHT22;10898;48.072;11.682;2022-12-05T00:50:38;2.80;99.90
21473;DHT22;10898;48.072;11.682;2022-12-05T00:52:40;2.80;99.90
21473;DHT22;10898;48.072;11.682;2022-12-05T00:54:42;2.80;99.90
21473;DHT22;10898;48.072;11.682;2022-12-05T00:56:44;2.70;99.90
21473;DHT22;10898;48.072;11.682;2022-12-05T00:58:46;2.70;99.90
21473;DHT22;10898;48.072;11.682;2022-12-05T01:00:48;2.70;99.90
21473;DHT22;10898;48.072;11.682;2022-12-05T01:02:50;2.70;99.90
21473;DHT22;10898;48.072;11.682;2022-12-05T01:04:52;2.70;99.90
21473;DHT22;10898;48.072;11.682;2022-12-05T01:06:55;2.60;99.90
21473;DHT22;10898;48.072;11.682;2022-12-05T01:08:58;2.70;99.90
21473;DHT22;10898;48.072;11.682;2022-12-05T01:11:01;2.80;99.90
21473;DHT22;10898;48.072;11.682;2022-12-05T01:13:03;2.80;99.90
21473;DHT22;10898;48.072;11.682;2022-12-05T01:15:05;2.90;99.90
21473;DHT22;10898;48.072;11.682;2022-12-05T01:17:07;2.70;99.90
21473;DHT22;10898;48.072;11.682;2022-12-05T01:19:22;2.70;99.90
21473;DHT22;10898;48.072;11.682;2022-12-05T01:21:24;2.70;99.90
21473;DHT22;10898;48.072;11.682;2022-12-05T01:23:26;2.70;99.90
21473;DHT22;10898;48.072;11.682;2022-12-05T01:25:28;2.60;99.90
21473;DHT22;10898;48.072;11.682;2022-12-05T01:27:29;2.60;99.90
21473;DHT22;10898;48.072;11.682;2022-12-05T01:29:31;2.60;99.90
21473;DHT22;10898;48.072;11.682;2022-12-05T01:31:35;2.60;99.90
21473;DHT22;10898;48.072;11.682;2022-12-05T01:33:37;2.60;99.90
21473;DHT22;10898;48.072;11.682;2022-12-05T01:35:40;2.60;99.90
21473;DHT22;10898;48.072;11.682;2022-12-05T01:37:41;2.60;99.90
21473;DHT22;10898;48.072;11.682;2022-12-05T01:39:43;2.70;99.90
21473;DHT22;10898;48.072;11.682;2022-12-05T01:41:47;2.70;99.90
21473;DHT22;10898;48.072;11.682;2022-12-05T01:46:00;2.70;99.90
21473;DHT22;10898;48.072;11.682;2022-12-05T01:48:09;2.70;99.90
21473;DHT22;10898;48.072;11.682;2022-12-05T01:50:12;2.70;99.90
21473;DHT22;10898;48.072;11.682;2022-12-05T01:52:17;2.80;99.90
21473;DHT22;10898;48.072;11.682;2022-12-05T01:54:21;2.80;99.90
21473;DHT22;10898;48.072;11.682;2022-12-05T01:56:23;2.80;99.90
21473;DHT22;10898;48.072;11.682;2022-12-05T01:58:29;2.80;99.90
21473;DHT22;10898;48.072;11.682;2022-12-05T02:00:32;2.90;99.90
21473;DHT22;10898;48.072;11.682;2022-12-05T02:02:34;2.70;99.90
21473;DHT22;10898;48.072;11.682;2022-12-05T02:04:40;2.70;99.90
21473;DHT22;10898;48.072;11.682;2022-12-05T02:06:46;2.70;99.90
21473;DHT22;10898;48.072;11.682;2022-12-05T02:08:48;2.70;99.90
21473;DHT22;10898;48.072;11.682;2022-12-05T02:10:54;2.70;99.90
21473;DHT22;10898;48.072;11.682;2022-12-05T02:13:04;2.90;99.90
21473;DHT22;10898;48.072;11.682;2022-12-05T02:15:25;2.70;99.90
21473;DHT22;10898;48.072;11.682;2022-12-05T02:17:58;2.70;99.90
21473;DHT22;10898;48.072;11.682;2022-12-05T02:30:03;2.80;99.90
21473;DHT22;10898;48.072;11.682;2022-12-05T02:32:16;2.80;99.90
21473;DHT22;10898;48.072;11.682;2022-12-05T02:37:13;2.70;99.90
21473;DHT22;10898;48.072;11.682;2022-12-05T02:40:02;2.70;99.90
21473;DHT22;10898;48.072;11.682;2022-12-05T02:42:14;2.70;99.90
21473;DHT22;10898;48.072;11.682;2022-12-05T02:44:36;2.70;99.90
21473;DHT22;10898;48.072;11.682;2022-12-05T02:46:41;2.70;99.90
21473;DHT22;10898;48.072;11.682;2022-12-05T02:48:45;2.70;99.90
21473;DHT22;10898;48.072;11.682;2022-12-05T02:50:49;2.80;99.90
21473;DHT22;10898;48.072;11.682;2022-12-05T02:52:53;2.70;99.90
21473;DHT22;10898;48.072;11.682;2022-12-05T02:54:57;2.70;99.90
21473;DHT22;10898;48.072;11.682;2022-12-05T02:57:00;2.70;99.90
21473;DHT22;10898;48.072;11.682;2022-12-05T02:59:02;2.70;99.90
21473;DHT22;10898;48.072;11.682;2022-12-05T03:01:05;2.70;99.90
21473;DHT22;10898;48.072;11.682;2022-12-05T03:03:13;2.70;99.90
21473;DHT22;10898;48.072;11.682;2022-12-05T03:05:39;2.70;99.90
21473;DHT22;10898;48.072;11.682;2022-12-05T03:07:45;2.70;99.90
21473;DHT22;10898;48.072;11.682;2022-12-05T03:09:58;2.70;99.90
21473;DHT22;10898;48.072;11.682;2022-12-05T03:12:20;2.70;99.90
21473;DHT22;10898;48.072;11.682;2022-12-05T03:14:27;2.70;99.90
21473;DHT22;10898;48.072;11.682;2022-12-05T03:16:46;2.70;99.90
21473;DHT22;10898;48.072;11.682;2022-12-05T03:18:54;2.80;99.90
21473;DHT22;10898;48.072;11.682;2022-12-05T03:21:13;2.80;99.90
21473;DHT22;10898;48.072;11.682;2022-12-05T03:23:29;2.80;99.90
21473;DHT22;10898;48.072;11.682;2022-12-05T03:28:22;2.80;99.90
21473;DHT22;10898;48.072;11.682;2022-12-05T03:30:25;2.70;99.90
21473;DHT22;10898;48.072;11.682;2022-12-05T03:36:48;2.70;99.90
21473;DHT22;10898;48.072;11.682;2022-12-05T03:38:55;2.70;99.90
21473;DHT22;10898;48.072;11.682;2022-12-05T03:41:18;2.70;99.90
21473;DHT22;10898;48.072;11.682;2022-12-05T03:43:32;2.70;99.90
21473;DHT22;10898;48.072;11.682;2022-12-05T03:45:54;2.70;99.90
21473;DHT22;10898;48.072;11.682;2022-12-05T03:48:13;2.70;99.90
21473;DHT22;10898;48.072;11.682;2022-12-05T03:50:26;2.70;99.90
21473;DHT22;10898;48.072;11.682;2022-12-05T03:54:42;2.70;99.90
21473;DHT22;10898;48.072;11.682;2022-12-05T03:56:50;2.70;99.90
21473;DHT22;10898;48.072;11.682;2022-12-05T03:59:03;2.70;99.90
21473;DHT22;10898;48.072;11.682;2022-12-05T04:01:07;2.60;99.90
21473;DHT22;10898;48.072;11.682;2022-12-05T04:03:21;2.60;99.90
21473;DHT22;10898;48.072;11.682;2022-12-05T04:07:44;2.60;99.90
21473;DHT22;10898;48.072;11.682;2022-12-05T04:09:51;2.60;99.90
21473;DHT22;10898;48.072;11.682;2022-12-05T04:12:02;2.70;99.90
21473;DHT22;10898;48.072;11.682;2022-12-05T04:14:15;2.60;99.90
21473;DHT22;10898;48.072;11.682;2022-12-05T04:18:48;2.70;99.90
21473;DHT22;10898;48.072;11.682;2022-12-05T04:20:52;2.60;99.90
21473;DHT22;10898;48.072;11.682;2022-12-05T04:23:13;2.60;99.90
21473;DHT22;10898;48.072;11.682;2022-12-05T04:25:16;2.70;99.90
21473;DHT22;10898;48.072;11.682;2022-12-05T04:27:41;2.70;99.90
21473;DHT22;10898;48.072;11.682;2022-12-05T04:30:05;2.70;99.90
21473;DHT22;10898;48.072;11.682;2022-12-05T04:32:09;2.70;99.90
21473;DHT22;10898;48.072;11.682;2022-12-05T04:34:13;2.80;99.90
21473;DHT22;10898;48.072;11.682;2022-12-05T04:36:24;2.80;99.90
21473;DHT22;10898;48.072;11.682;2022-12-05T04:38:30;2.80;99.90
21473;DHT22;10898;48.072;11.682;2022-12-05T04:40:38;2.80;99.90
21473;DHT22;10898;48.072;11.682;2022-12-05T04:42:41;2.80;99.90
21473;DHT22;10898;48.072;11.682;2022-12-05T04:44:49;2.80;99.90
21473;DHT22;10898;48.072;11.682;2022-12-05T04:46:54;2.80;99.90
21473;DHT22;10898;48.072;11.682;2022-12-05T04:48:59;2.80;99.90
21473;DHT22;10898;48.072;11.682;2022-12-05T04:51:02;2.80;99.90
21473;DHT22;10898;48.072;11.682;2022-12-05T04:53:05;2.80;99.90
21473;DHT22;10898;48.072;11.682;2022-12-05T04:55:12;2.80;99.90
21473;DHT22;10898;48.072;11.682;2022-12-05T04:57:21;2.90;99.90
21473;DHT22;10898;48.072;11.682;2022-12-05T04:59:25;2.80;99.90
21473;DHT22;10898;48.072;11.682;2022-12-05T05:01:33;2.80;99.90
21473;DHT22;10898;48.072;11.682;2022-12-05T05:05:48;2.90;99.90
21473;DHT22;10898;48.072;11.682;2022-12-05T05:07:53;2.80;99.90
21473;DHT22;10898;48.072;11.682;2022-12-05T05:09:56;2.80;99.90
21473;DHT22;10898;48.072;11.682;2022-12-05T05:11:58;2.90;99.90
21473;DHT22;10898;48.072;11.682;2022-12-05T05:14:01;2.90;99.90
21473;DHT22;10898;48.072;11.682;2022-12-05T05:16:03;2.90;99.90
21473;DHT22;10898;48.072;11.682;2022-12-05T05:18:05;3.00;99.90
21473;DHT22;10898;48.072;11.682;2022-12-05T05:20:07;3.00;99.90
21473;DHT22;10898;48.072;11.682;2022-12-05T05:22:24;3.00;99.90
21473;DHT22;10898;48.072;11.682;2022-12-05T05:24:26;3.00;99.90
21473;DHT22;10898;48.072;11.682;2022-12-05T05:26:29;2.90;99.90
21473;DHT22;10898;48.072;11.682;2022-12-05T05:28:31;3.10;99.90
21473;DHT22;10898;48.072;11.682;2022-12-05T05:30:32;3.10;99.90
21473;DHT22;10898;48.072;11.682;2022-12-05T05:32:34;3.10;99.90
21473;DHT22;10898;48.072;11.682;2022-12-05T05:34:36;3.10;99.90
21473;DHT22;10898;48.072;11.682;2022-12-05T05:36:38;3.20;99.90
21473;DHT22;10898;48.072;11.682;2022-12-05T05:38:46;3.20;99.90
21473;DHT22;10898;48.072;11.682;2022-12-05T05:40:48;3.20;99.90
21473;DHT22;10898;48.072;11.682;2022-12-05T05:42:49;3.20;99.90
21473;DHT22;10898;48.072;11.682;2022-12-05T05:44:51;3.30;99.90
21473;DHT22;10898;48.072;11.682;2022-12-05T05:46:53;3.30;99.90
21473;DHT22;10898;48.072;11.682;2022-12-05T05:48:55;3.20;99.90
21473;DHT22;10898;48.072;11.682;2022-12-05T05:50:58;3.30;99.90
21473;DHT22;10898;48.072;11.682;2022-12-05T05:53:00;3.30;99.90
21473;DHT22;10898;48.072;11.682;2022-12-05T05:55:03;3.40;99.90
21473;DHT22;10898;48.072;11.682;2022-12-05T05:57:05;3.40;99.90
21473;DHT22;10898;48.072;11.682;2022-12-05T05:59:08;3.40;99.90
21473;DHT22;10898;48.072;11.682;2022-12-05T06:01:16;3.40;99.90
21473;DHT22;10898;48.072;11.682;2022-12-05T06:03:18;3.50;99.90
21473;DHT22;10898;48.072;11.682;2022-12-05T06:05:20;3.50;99.90
21473;DHT22;10898;48.072;11.682;2022-12-05T06:07:22;3.50;99.90
21473;DHT22;10898;48.072;11.682;2022-12-05T06:09:23;3.50;99.90
21473;DHT22;10898;48.072;11.682;2022-12-05T06:11:26;3.50;99.90
21473;DHT22;10898;48.072;11.682;2022-12-05T06:13:28;3.50;99.90
21473;DHT22;10898;48.072;11.682;2022-12-05T06:15:30;3.50;99.90
21473;DHT22;10898;48.072;11.682;2022-12-05T06:17:32;3.50;99.90
21473;DHT22;10898;48.072;11.682;2022-12-05T06:19:34;3.60;99.90
21473;DHT22;10898;48.072;11.682;2022-12-05T06:21:35;3.50;99.90
21473;DHT22;10898;48.072;11.682;2022-12-05T06:23:38;3.60;99.90
21473;DHT22;10898;48.072;11.682;2022-12-05T06:25:40;3.60;99.90
21473;DHT22;10898;48.072;11.682;2022-12-05T06:27:47;3.60;99.90
21473;DHT22;10898;48.072;11.682;2022-12-05T06:29:49;3.60;99.90
21473;DHT22;10898;48.072;11.682;2022-12-05T06:31:50;3.60;99.90
21473;DHT22;10898;48.072;11.682;2022-12-05T06:33:53;3.60;99.90
21473;DHT22;10898;48.072;11.682;2022-12-05T06:36:10;3.60;99.90
21473;DHT22;10898;48.072;11.682;2022-12-05T06:38:12;3.70;99.90
21473;DHT22;10898;48.072;11.682;2022-12-05T06:40:14;3.70;99.90
21473;DHT22;10898;48.072;11.682;2022-12-05T06:42:16;3.70;99.90
21473;DHT22;10898;48.072;11.682;2022-12-05T06:44:18;3.70;99.90
21473;DHT22;10898;48.072;11.682;2022-12-05T06:46:21;3.70;99.90
21473;DHT22;10898;48.072;11.682;2022-12-05T06:48:23;3.70;99.90
21473;DHT22;10898;48.072;11.682;2022-12-05T06:50:25;3.80;99.90
21473;DHT22;10898;48.072;11.682;2022-12-05T06:52:27;3.80;99.90
21473;DHT22;10898;48.072;11.682;2022-12-05T06:54:28;3.80;99.90
21473;DHT22;10898;48.072;11.682;2022-12-05T06:56:30;3.80;99.90
21473;DHT22;10898;48.072;11.682;2022-12-05T06:58:32;3.90;99.90
21473;DHT22;10898;48.072;11.682;2022-12-05T07:00:34;3.90;99.90
21473;DHT22;10898;48.072;11.682;2022-12-05T07:02:54;3.90;99.90
21473;DHT22;10898;48.072;11.682;2022-12-05T07:04:56;3.90;99.90
21473;DHT22;10898;48.072;11.682;2022-12-05T07:06:58;3.90;99.90
21473;DHT22;10898;48.072;11.682;2022-12-05T07:09:03;4.00;99.90
21473;DHT22;10898;48.072;11.682;2022-12-05T07:11:06;3.90;99.90
21473;DHT22;10898;48.072;11.682;2022-12-05T07:13:07;3.90;99.90
21473;DHT22;10898;48.072;11.682;2022-12-05T07:15:16;4.00;99.90
21473;DHT22;10898;48.072;11.682;2022-12-05T07:17:19;3.90;99.90
21473;DHT22;10898;48.072;11.682;2022-12-05T07:19:21;4.00;99.90
21473;DHT22;10898;48.072;11.682;2022-12-05T07:21:23;4.00;99.90
21473;DHT22;10898;48.072;11.682;2022-12-05T07:23:25;4.00;99.90
21473;DHT22;10898;48.072;11.682;2022-12-05T07:25:27;4.00;99.90
21473;DHT22;10898;48.072;11.682;2022-12-05T07:27:30;4.00;99.90
21473;DHT22;10898;48.072;11.682;2022-12-05T07:29:31;4.00;99.90
21473;DHT22;10898;48.072;11.682;2022-12-05T07:31:33;4.00;99.90
21473;DHT22;10898;48.072;11.682;2022-12-05T07:33:37;4.00;99.90
21473;DHT22;10898;48.072;11.682;2022-12-05T07:35:39;4.00;99.90
21473;DHT22;10898;48.072;11.682;2022-12-05T07:37:40;4.00;99.90
21473;DHT22;10898;48.072;11.682;2022-12-05T07:39:42;4.00;99.90
21473;DHT22;10898;48.072;11.682;2022-12-05T07:41:44;4.10;99.90
21473;DHT22;10898;48.072;11.682;2022-12-05T07:43:46;4.10;99.90
21473;DHT22;10898;48.072;11.682;2022-12-05T07:45:48;4.10;99.90
21473;DHT22;10898;48.072;11.682;2022-12-05T07:47:50;4.10;99.90
21473;DHT22;10898;48.072;11.682;2022-12-05T07:49:52;4.10;99.90
21473;DHT22;10898;48.072;11.682;2022-12-05T07:51:54;4.20;99.90
21473;DHT22;10898;48.072;11.682;2022-12-05T07:53:58;4.20;99.90
21473;DHT22;10898;48.072;11.682;2022-12-05T07:56:01;4.20;99.90
21473;DHT22;10898;48.072;11.682;2022-12-05T07:58:03;4.20;99.90
21473;DHT22;10898;48.072;11.682;2022-12-05T08:00:05;4.20;99.90
21473;DHT22;10898;48.072;11.682;2022-12-05T08:02:08;4.30;99.90
21473;DHT22;10898;48.072;11.682;2022-12-05T08:04:10;4.30;99.90
21473;DHT22;10898;48.072;11.682;2022-12-05T08:06:21;4.30;99.90
21473;DHT22;10898;48.072;11.682;2022-12-05T08:08:23;4.30;99.90
21473;DHT22;10898;48.072;11.682;2022-12-05T08:10:25;4.30;99.90
21473;DHT22;10898;48.072;11.682;2022-12-05T08:12:27;4.30;99.90
21473;DHT22;10898;48.072;11.682;2022-12-05T08:14:29;4.30;99.90
21473;DHT22;10898;48.072;11.682;2022-12-05T08:16:31;4.30;99.90
21473;DHT22;10898;48.072;11.682;2022-12-05T08:18:33;4.30;99.90
21473;DHT22;10898;48.072;11.682;2022-12-05T08:20:35;4.40;99.90
21473;DHT22;10898;48.072;11.682;2022-12-05T08:22:37;4.40;99.90
21473;DHT22;10898;48.072;11.682;2022-12-05T08:24:38;4.50;99.90
21473;DHT22;10898;48.072;11.682;2022-12-05T08:26:40;4.50;99.90
21473;DHT22;10898;48.072;11.682;2022-12-05T08:28:43;4.50;99.90
21473;DHT22;10898;48.072;11.682;2022-12-05T08:30:45;4.60;99.90
21473;DHT22;10898;48.072;11.682;2022-12-05T08:32:47;4.60;99.90
21473;DHT22;10898;48.072;11.682;2022-12-05T08:34:49;4.60;99.90
21473;DHT22;10898;48.072;11.682;2022-12-05T08:36:51;4.60;99.90
21473;DHT22;10898;48.072;11.682;2022-12-05T08:38:57;4.60;99.90
21473;DHT22;10898;48.072;11.682;2022-12-05T08:41:01;4.60;99.90
21473;DHT22;10898;48.072;11.682;2022-12-05T08:43:03;4.60;99.90
21473;DHT22;10898;48.072;11.682;2022-12-05T08:45:05;4.70;99.90
21473;DHT22;10898;48.072;11.682;2022-12-05T08:47:07;4.60;99.90
21473;DHT22;10898;48.072;11.682;2022-12-05T08:49:10;4.60;99.90
21473;DHT22;10898;48.072;11.682;2022-12-05T08:51:12;4.60;99.90
21473;DHT22;10898;48.072;11.682;2022-12-05T08:53:15;4.60;99.90
21473;DHT22;10898;48.072;11.682;2022-12-05T08:55:16;4.60;99.90
21473;DHT22;10898;48.072;11.682;2022-12-05T08:57:18;4.60;99.90
21473;DHT22;10898;48.072;11.682;2022-12-05T08:59:20;4.60;99.90
21473;DHT22;10898;48.072;11.682;2022-12-05T09:01:22;4.70;99.90
21473;DHT22;10898;48.072;11.682;2022-12-05T09:03:26;4.60;99.90
21473;DHT22;10898;48.072;11.682;2022-12-05T09:05:27;4.60;99.90
21473;DHT22;10898;48.072;11.682;2022-12-05T09:07:30;4.60;99.90
21473;DHT22;10898;48.072;11.682;2022-12-05T09:09:32;4.60;99.90
21473;DHT22;10898;48.072;11.682;2022-12-05T09:11:37;4.60;99.90
21473;DHT22;10898;48.072;11.682;2022-12-05T09:13:41;4.60;99.90
21473;DHT22;10898;48.072;11.682;2022-12-05T09:15:43;4.60;99.90
21473;DHT22;10898;48.072;11.682;2022-12-05T09:17:45;4.60;99.90
21473;DHT22;10898;48.072;11.682;2022-12-05T09:19:50;4.60;99.90
21473;DHT22;10898;48.072;11.682;2022-12-05T09:21:53;4.60;99.90
21473;DHT22;10898;48.072;11.682;2022-12-05T09:23:56;4.60;99.90
21473;DHT22;10898;48.072;11.682;2022-12-05T09:25:58;4.60;99.90
21473;DHT22;10898;48.072;11.682;2022-12-05T09:28:02;4.60;99.90
21473;DHT22;10898;48.072;11.682;2022-12-05T09:30:06;4.60;99.90
21473;DHT22;10898;48.072;11.682;2022-12-05T09:32:09;4.60;99.90
21473;DHT22;10898;48.072;11.682;2022-12-05T09:34:12;4.70;99.90
21473;DHT22;10898;48.072;11.682;2022-12-05T09:36:21;4.70;99.90
21473;DHT22;10898;48.072;11.682;2022-12-05T09:38:23;4.70;99.90
21473;DHT22;10898;48.072;11.682;2022-12-05T09:40:25;4.70;99.90
21473;DHT22;10898;48.072;11.682;2022-12-05T09:42:57;4.70;99.90
21473;DHT22;10898;48.072;11.682;2022-12-05T09:49:32;4.80;99.90
21473;DHT22;10898;48.072;11.682;2022-12-05T09:51:38;4.70;99.90
21473;DHT22;10898;48.072;11.682;2022-12-05T09:53:42;4.80;99.90
21473;DHT22;10898;48.072;11.682;2022-12-05T09:55:46;4.80;99.90
21473;DHT22;10898;48.072;11.682;2022-12-05T09:57:56;4.80;99.90
21473;DHT22;10898;48.072;11.682;2022-12-05T09:59:59;4.90;99.90
21473;DHT22;10898;48.072;11.682;2022-12-05T10:02:16;4.90;99.90
21473;DHT22;10898;48.072;11.682;2022-12-05T10:14:27;4.90;99.90
21473;DHT22;10898;48.072;11.682;2022-12-05T10:16:53;4.90;99.90
21473;DHT22;10898;48.072;11.682;2022-12-05T10:18:58;4.90;99.90
21473;DHT22;10898;48.072;11.682;2022-12-05T10:25:51;5.00;99.90
21473;DHT22;10898;48.072;11.682;2022-12-05T10:27:59;5.00;99.90
21473;DHT22;10898;48.072;11.682;2022-12-05T10:32:12;5.00;99.90
21473;DHT22;10898;48.072;11.682;2022-12-05T10:34:38;5.00;99.90
21473;DHT22;10898;48.072;11.682;2022-12-05T10:36:49;5.10;99.90
21473;DHT22;10898;48.072;11.682;2022-12-05T10:38:53;4.90;99.90
21473;DHT22;10898;48.072;11.682;2022-12-05T10:41:00;5.10;99.90
21473;DHT22;10898;48.072;11.682;2022-12-05T10:43:05;5.10;99.90
21473;DHT22;10898;48.072;11.682;2022-12-05T10:45:20;5.10;99.90
21473;DHT22;10898;48.072;11.682;2022-12-05T10:47:22;5.10;99.90
21473;DHT22;10898;48.072;11.682;2022-12-05T10:49:25;5.10;99.90
21473;DHT22;10898;48.072;11.682;2022-12-05T10:51:27;5.10;99.90
21473;DHT22;10898;48.072;11.682;2022-12-05T10:53:47;5.10;99.90
21473;DHT22;10898;48.072;11.682;2022-12-05T10:55:53;5.20;99.90
21473;DHT22;10898;48.072;11.682;2022-12-05T10:58:19;5.20;99.90
21473;DHT22;10898;48.072;11.682;2022-12-05T11:00:29;5.20;99.90
21473;DHT22;10898;48.072;11.682;2022-12-05T11:02:32;5.20;99.90
21473;DHT22;10898;48.072;11.682;2022-12-05T11:04:43;5.20;99.90
21473;DHT22;10898;48.072;11.682;2022-12-05T11:09:04;5.30;99.90
21473;DHT22;10898;48.072;11.682;2022-12-05T11:11:22;5.30;99.90
21473;DHT22;10898;48.072;11.682;2022-12-05T11:13:25;5.40;99.90
21473;DHT22;10898;48.072;11.682;2022-12-05T11:15:27;5.40;99.90
21473;DHT22;10898;48.072;11.682;2022-12-05T11:17:37;5.40;99.90
21473;DHT22;10898;48.072;11.682;2022-12-05T11:19:39;5.40;99.90
21473;DHT22;10898;48.072;11.682;2022-12-05T11:21:42;5.40;99.90
21473;DHT22;10898;48.072;11.682;2022-12-05T11:23:45;5.50;99.90
21473;DHT22;10898;48.072;11.682;2022-12-05T11:25:46;5.70;99.90
21473;DHT22;10898;48.072;11.682;2022-12-05T11:27:48;5.60;99.90
21473;DHT22;10898;48.072;11.682;2022-12-05T11:31:58;5.70;99.90
21473;DHT22;10898;48.072;11.682;2022-12-05T11:34:21;5.70;99.90
21473;DHT22;10898;48.072;11.682;2022-12-05T11:36:37;5.70;99.90
21473;DHT22;10898;48.072;11.682;2022-12-05T11:38:40;5.70;99.90
21473;DHT22;10898;48.072;11.682;2022-12-05T11:48:12;5.70;99.90
21473;DHT22;10898;48.072;11.682;2022-12-05T11:50:37;5.70;99.90
21473;DHT22;10898;48.072;11.682;2022-12-05T11:52:53;5.70;99.90
21473;DHT22;10898;48.072;11.682;2022-12-05T11:55:32;5.70;99.90
21473;DHT22;10898;48.072;11.682;2022-12-05T12:00:17;5.80;99.90
21473;DHT22;10898;48.072;11.682;2022-12-05T12:13:41;5.90;99.90
21473;DHT22;10898;48.072;11.682;2022-12-05T12:23:05;5.90;99.90
21473;DHT22;10898;48.072;11.682;2022-12-05T12:30:31;5.90;99.90
21473;DHT22;10898;48.072;11.682;2022-12-05T12:33:04;5.90;99.90
21473;DHT22;10898;48.072;11.682;2022-12-05T12:35:28;5.90;99.90
21473;DHT22;10898;48.072;11.682;2022-12-05T12:37:59;5.90;99.90
21473;DHT22;10898;48.072;11.682;2022-12-05T12:40:23;5.90;99.90
21473;DHT22;10898;48.072;11.682;2022-12-05T12:42:47;5.90;99.90
21473;DHT22;10898;48.072;11.682;2022-12-05T12:47:07;5.90;99.90
21473;DHT22;10898;48.072;11.682;2022-12-05T12:51:22;5.90;99.90
21473;DHT22;10898;48.072;11.682;2022-12-05T12:56:05;5.80;99.90
21473;DHT22;10898;48.072;11.682;2022-12-05T13:00:39;5.90;99.90
21473;DHT22;10898;48.072;11.682;2022-12-05T13:02:59;5.90;99.90
21473;DHT22;10898;48.072;11.682;2022-12-05T13:07:57;5.90;99.90
21473;DHT22;10898;48.072;11.682;2022-12-05T13:12:15;5.80;99.90
21473;DHT22;10898;48.072;11.682;2022-12-05T13:14:20;5.90;99.90
21473;DHT22;10898;48.072;11.682;2022-12-05T13:16:34;5.90;99.90
21473;DHT22;10898;48.072;11.682;2022-12-05T13:18:44;5.90;99.90
21473;DHT22;10898;48.072;11.682;2022-12-05T13:20:58;6.00;99.90
21473;DHT22;10898;48.072;11.682;2022-12-05T13:23:02;5.90;99.90
21473;DHT22;10898;48.072;11.682;2022-12-05T13:25:15;5.90;99.90
21473;DHT22;10898;48.072;11.682;2022-12-05T13:27:20;5.90;99.90
21473;DHT22;10898;48.072;11.682;2022-12-05T13:29:30;5.80;99.90
21473;DHT22;10898;48.072;11.682;2022-12-05T13:31:38;5.80;99.90
21473;DHT22;10898;48.072;11.682;2022-12-05T13:33:45;5.80;99.90
21473;DHT22;10898;48.072;11.682;2022-12-05T13:35:47;5.90;99.90
21473;DHT22;10898;48.072;11.682;2022-12-05T13:38:39;5.80;99.90
21473;DHT22;10898;48.072;11.682;2022-12-05T13:41:00;5.80;99.90
21473;DHT22;10898;48.072;11.682;2022-12-05T13:43:25;5.80;99.90
21473;DHT22;10898;48.072;11.682;2022-12-05T13:45:28;5.70;99.90
21473;DHT22;10898;48.072;11.682;2022-12-05T13:47:54;5.70;99.90
21473;DHT22;10898;48.072;11.682;2022-12-05T13:50:53;5.70;99.90
21473;DHT22;10898;48.072;11.682;2022-12-05T13:53:28;5.70;99.90
21473;DHT22;10898;48.072;11.682;2022-12-05T13:55:36;5.70;99.90
21473;DHT22;10898;48.072;11.682;2022-12-05T14:04:47;5.70;99.90
21473;DHT22;10898;48.072;11.682;2022-12-05T14:06:56;5.70;99.90
21473;DHT22;10898;48.072;11.682;2022-12-05T14:08:58;5.70;99.90
21473;DHT22;10898;48.072;11.682;2022-12-05T14:15:38;5.60;99.90
21473;DHT22;10898;48.072;11.682;2022-12-05T14:17:44;5.60;99.90
21473;DHT22;10898;48.072;11.682;2022-12-05T14:27:57;5.50;99.90
21473;DHT22;10898;48.072;11.682;2022-12-05T14:30:30;5.50;99.90
21473;DHT22;10898;48.072;11.682;2022-12-05T14:32:38;5.50;99.90
21473;DHT22;10898;48.072;11.682;2022-12-05T14:39:42;5.50;99.90
21473;DHT22;10898;48.072;11.682;2022-12-05T14:41:42;5.50;99.90
21473;DHT22;10898;48.072;11.682;2022-12-05T14:43:52;5.50;99.90
21473;DHT22;10898;48.072;11.682;2022-12-05T14:46:06;5.60;99.90
21473;DHT22;10898;48.072;11.682;2022-12-05T14:50:33;5.60;99.90
21473;DHT22;10898;48.072;11.682;2022-12-05T14:52:35;5.50;99.90
21473;DHT22;10898;48.072;11.682;2022-12-05T14:54:39;5.50;99.90
21473;DHT22;10898;48.072;11.682;2022-12-05T14:56:45;5.40;99.90
21473;DHT22;10898;48.072;11.682;2022-12-05T14:58:50;5.40;99.90
21473;DHT22;10898;48.072;11.682;2022-12-05T15:01:00;5.40;99.90
21473;DHT22;10898;48.072;11.682;2022-12-05T15:03:02;5.40;99.90
21473;DHT22;10898;48.072;11.682;2022-12-05T15:05:26;5.30;99.90
21473;DHT22;10898;48.072;11.682;2022-12-05T15:07:34;5.30;99.90
21473;DHT22;10898;48.072;11.682;2022-12-05T15:12:21;5.20;99.90
21473;DHT22;10898;48.072;11.682;2022-12-05T15:14:26;5.10;99.90
21473;DHT22;10898;48.072;11.682;2022-12-05T15:16:36;5.10;99.90
21473;DHT22;10898;48.072;11.682;2022-12-05T15:22:52;5.20;99.90
21473;DHT22;10898;48.072;11.682;2022-12-05T15:24:54;5.10;99.90
21473;DHT22;10898;48.072;11.682;2022-12-05T15:26:57;5.10;99.90
21473;DHT22;10898;48.072;11.682;2022-12-05T15:29:05;5.10;99.90
21473;DHT22;10898;48.072;11.682;2022-12-05T15:31:10;5.10;99.90
21473;DHT22;10898;48.072;11.682;2022-12-05T15:33:13;5.10;99.90
21473;DHT22;10898;48.072;11.682;2022-12-05T15:35:15;5.10;99.90
21473;DHT22;10898;48.072;11.682;2022-12-05T15:37:20;5.10;99.90
21473;DHT22;10898;48.072;11.682;2022-12-05T15:39:24;5.10;99.90